Antler, North Dakota
Current Conditions -  °F | °C
As of 3:48 PM on Thursday 18 Dec 2014 (Local Time) from KMIB Reporting Station
Overcast Overcast  
Wind Chill: -10°   Ceiling: 1000
Heat Index: -5°   Visibility: 10mi
Dew Point: -6°   Wind: 8mph
Humidity: 93%   Direction: 160°SSE
Pressure: 29.99"   Gusts: NA
Location:  48.97°N, 101.28°W
Report Text: KMIB 182148Z AUTO 16007KT 10SM OVC010 M05/M06 A2999 RMK AO2
Loading
Personal Weather Stations






























Interactive Weather Map New forecast layout! Learn more

10-Day Weather Forecast

Advertisements
Track Severe Weather on mobile